Terminal Aerodrome Forecast
Issued by NWS Central Illinois

Home | Current Version | Previous Version | Text Only | Print | Product List | Glossary On
Versions: 1 2 3 4 5 6 7 8 9 10 11 12 13 14 15 16 17
742
FTUS43 KILX 170522
TAFSPI
TAF
KSPI 170522Z 1706/1806 20007KT P6SM OVC250
     FM171400 20006KT P6SM VCSH BKN060
     FM171900 19007KT P6SM VCSH OVC030
     FM172100 19006KT P6SM BKN015=

USA.gov is the U.S. government's official web portal to all federal, state and local government web resources and services.